sensor_id;sensor_type;location;lat;lon;timestamp;P1;durP1;ratioP1;P2;durP2;ratioP2
68438;SDS011;55421;51.600;5.718;2024-01-30T00:00:42;12.80;;;7.70;;
68438;SDS011;55421;51.600;5.718;2024-01-30T00:03:28;11.00;;;7.40;;
68438;SDS011;55421;51.600;5.718;2024-01-30T00:05:58;11.80;;;7.30;;
68438;SDS011;55421;51.600;5.718;2024-01-30T00:08:24;12.80;;;7.10;;
68438;SDS011;55421;51.600;5.718;2024-01-30T00:10:50;13.10;;;7.40;;
68438;SDS011;55421;51.600;5.718;2024-01-30T00:13:17;11.30;;;7.40;;
68438;SDS011;55421;51.600;5.718;2024-01-30T00:15:46;13.00;;;7.70;;
68438;SDS011;55421;51.600;5.718;2024-01-30T00:18:12;12.20;;;8.30;;
68438;SDS011;55421;51.600;5.718;2024-01-30T00:20:39;12.20;;;8.10;;
68438;SDS011;55421;51.600;5.718;2024-01-30T00:23:05;11.70;;;7.60;;
68438;SDS011;55421;51.600;5.718;2024-01-30T00:25:32;13.00;;;7.70;;
68438;SDS011;55421;51.600;5.718;2024-01-30T00:27:59;14.10;;;8.00;;
68438;SDS011;55421;51.600;5.718;2024-01-30T00:30:26;12.30;;;7.90;;
68438;SDS011;55421;51.600;5.718;2024-01-30T00:32:53;12.50;;;7.90;;
68438;SDS011;55421;51.600;5.718;2024-01-30T00:35:20;14.30;;;9.00;;
68438;SDS011;55421;51.600;5.718;2024-01-30T00:37:48;16.90;;;9.80;;
68438;SDS011;55421;51.600;5.718;2024-01-30T00:40:15;19.80;;;10.20;;
68438;SDS011;55421;51.600;5.718;2024-01-30T00:42:42;14.90;;;9.30;;
68438;SDS011;55421;51.600;5.718;2024-01-30T00:45:14;13.50;;;8.60;;
68438;SDS011;55421;51.600;5.718;2024-01-30T00:47:42;14.30;;;8.70;;
68438;SDS011;55421;51.600;5.718;2024-01-30T00:50:09;15.10;;;8.50;;
68438;SDS011;55421;51.600;5.718;2024-01-30T00:52:36;13.10;;;8.60;;
68438;SDS011;55421;51.600;5.718;2024-01-30T00:55:03;14.70;;;8.90;;
68438;SDS011;55421;51.600;5.718;2024-01-30T00:57:29;19.30;;;9.40;;
68438;SDS011;55421;51.600;5.718;2024-01-30T00:59:57;13.00;;;9.00;;
68438;SDS011;55421;51.600;5.718;2024-01-30T01:02:23;15.20;;;9.10;;
68438;SDS011;55421;51.600;5.718;2024-01-30T01:04:51;13.90;;;8.30;;
68438;SDS011;55421;51.600;5.718;2024-01-30T01:07:19;14.30;;;8.60;;
68438;SDS011;55421;51.600;5.718;2024-01-30T01:09:46;13.70;;;9.50;;
68438;SDS011;55421;51.600;5.718;2024-01-30T01:12:12;15.00;;;8.70;;
68438;SDS011;55421;51.600;5.718;2024-01-30T01:14:39;14.30;;;9.00;;
68438;SDS011;55421;51.600;5.718;2024-01-30T01:17:05;12.80;;;8.50;;
68438;SDS011;55421;51.600;5.718;2024-01-30T01:19:32;14.70;;;9.10;;
68438;SDS011;55421;51.600;5.718;2024-01-30T01:21:59;12.70;;;8.80;;
68438;SDS011;55421;51.600;5.718;2024-01-30T01:24:26;13.20;;;8.90;;
68438;SDS011;55421;51.600;5.718;2024-01-30T01:26:52;15.00;;;9.10;;
68438;SDS011;55421;51.600;5.718;2024-01-30T01:29:18;14.00;;;8.60;;
68438;SDS011;55421;51.600;5.718;2024-01-30T01:31:47;13.30;;;7.80;;
68438;SDS011;55421;51.600;5.718;2024-01-30T01:34:13;12.70;;;8.80;;
68438;SDS011;55421;51.600;5.718;2024-01-30T01:36:40;14.00;;;8.60;;
68438;SDS011;55421;51.600;5.718;2024-01-30T01:39:06;16.10;;;9.00;;
68438;SDS011;55421;51.600;5.718;2024-01-30T01:41:33;14.40;;;8.10;;
68438;SDS011;55421;51.600;5.718;2024-01-30T01:44:00;13.70;;;8.40;;
68438;SDS011;55421;51.600;5.718;2024-01-30T01:46:27;15.30;;;9.00;;
68438;SDS011;55421;51.600;5.718;2024-01-30T01:49:02;13.60;;;8.90;;
68438;SDS011;55421;51.600;5.718;2024-01-30T01:51:33;13.10;;;8.50;;
68438;SDS011;55421;51.600;5.718;2024-01-30T01:54:04;17.30;;;8.20;;
68438;SDS011;55421;51.600;5.718;2024-01-30T01:56:33;14.40;;;8.20;;
68438;SDS011;55421;51.600;5.718;2024-01-30T01:59:05;11.70;;;7.90;;
68438;SDS011;55421;51.600;5.718;2024-01-30T02:01:36;16.00;;;8.20;;
68438;SDS011;55421;51.600;5.718;2024-01-30T02:04:04;13.40;;;8.30;;
68438;SDS011;55421;51.600;5.718;2024-01-30T02:06:32;16.10;;;9.30;;
68438;SDS011;55421;51.600;5.718;2024-01-30T02:09:01;15.80;;;8.90;;
68438;SDS011;55421;51.600;5.718;2024-01-30T02:11:28;13.30;;;8.20;;
68438;SDS011;55421;51.600;5.718;2024-01-30T02:13:55;13.90;;;9.40;;
68438;SDS011;55421;51.600;5.718;2024-01-30T02:16:21;12.50;;;8.50;;
68438;SDS011;55421;51.600;5.718;2024-01-30T02:18:48;15.80;;;9.00;;
68438;SDS011;55421;51.600;5.718;2024-01-30T02:21:16;16.50;;;8.00;;
68438;SDS011;55421;51.600;5.718;2024-01-30T02:23:44;14.90;;;8.30;;
68438;SDS011;55421;51.600;5.718;2024-01-30T02:26:13;12.70;;;8.10;;
68438;SDS011;55421;51.600;5.718;2024-01-30T02:28:39;13.90;;;8.50;;
68438;SDS011;55421;51.600;5.718;2024-01-30T02:31:06;12.70;;;8.00;;
68438;SDS011;55421;51.600;5.718;2024-01-30T02:33:32;13.20;;;7.90;;
68438;SDS011;55421;51.600;5.718;2024-01-30T02:35:59;16.70;;;8.30;;
68438;SDS011;55421;51.600;5.718;2024-01-30T02:38:26;12.40;;;8.20;;
68438;SDS011;55421;51.600;5.718;2024-01-30T02:40:53;15.30;;;8.40;;
68438;SDS011;55421;51.600;5.718;2024-01-30T02:43:19;17.10;;;8.80;;
68438;SDS011;55421;51.600;5.718;2024-01-30T02:45:46;12.10;;;7.60;;
68438;SDS011;55421;51.600;5.718;2024-01-30T02:48:12;13.40;;;7.70;;
68438;SDS011;55421;51.600;5.718;2024-01-30T02:50:39;12.80;;;8.10;;
68438;SDS011;55421;51.600;5.718;2024-01-30T02:53:05;15.00;;;8.50;;
68438;SDS011;55421;51.600;5.718;2024-01-30T02:55:32;12.30;;;7.60;;
68438;SDS011;55421;51.600;5.718;2024-01-30T02:57:59;10.40;;;7.80;;
68438;SDS011;55421;51.600;5.718;2024-01-30T03:00:26;14.30;;;8.50;;
68438;SDS011;55421;51.600;5.718;2024-01-30T03:02:52;13.00;;;8.20;;
68438;SDS011;55421;51.600;5.718;2024-01-30T03:05:19;13.70;;;8.30;;
68438;SDS011;55421;51.600;5.718;2024-01-30T03:07:45;13.60;;;7.80;;
68438;SDS011;55421;51.600;5.718;2024-01-30T03:10:12;17.90;;;8.30;;
68438;SDS011;55421;51.600;5.718;2024-01-30T03:12:38;13.20;;;7.90;;
68438;SDS011;55421;51.600;5.718;2024-01-30T03:15:05;14.10;;;8.30;;
68438;SDS011;55421;51.600;5.718;2024-01-30T03:17:32;14.00;;;8.70;;
68438;SDS011;55421;51.600;5.718;2024-01-30T03:19:58;18.20;;;8.60;;
68438;SDS011;55421;51.600;5.718;2024-01-30T03:22:25;15.80;;;9.40;;
68438;SDS011;55421;51.600;5.718;2024-01-30T03:24:51;13.60;;;8.70;;
68438;SDS011;55421;51.600;5.718;2024-01-30T03:27:18;13.10;;;8.10;;
68438;SDS011;55421;51.600;5.718;2024-01-30T03:29:44;11.90;;;8.10;;
68438;SDS011;55421;51.600;5.718;2024-01-30T03:32:11;12.10;;;8.00;;
68438;SDS011;55421;51.600;5.718;2024-01-30T03:34:37;12.70;;;7.90;;
68438;SDS011;55421;51.600;5.718;2024-01-30T03:37:04;12.20;;;8.20;;
68438;SDS011;55421;51.600;5.718;2024-01-30T03:39:31;13.10;;;8.00;;
68438;SDS011;55421;51.600;5.718;2024-01-30T03:41:57;12.30;;;7.90;;
68438;SDS011;55421;51.600;5.718;2024-01-30T03:44:23;14.70;;;8.10;;
68438;SDS011;55421;51.600;5.718;2024-01-30T03:46:50;14.30;;;7.50;;
68438;SDS011;55421;51.600;5.718;2024-01-30T03:49:17;11.70;;;7.70;;
68438;SDS011;55421;51.600;5.718;2024-01-30T03:51:43;12.20;;;8.00;;
68438;SDS011;55421;51.600;5.718;2024-01-30T03:54:10;14.00;;;7.80;;
68438;SDS011;55421;51.600;5.718;2024-01-30T03:56:37;13.70;;;7.60;;
68438;SDS011;55421;51.600;5.718;2024-01-30T03:59:03;12.60;;;7.90;;
68438;SDS011;55421;51.600;5.718;2024-01-30T04:01:30;12.30;;;8.10;;
68438;SDS011;55421;51.600;5.718;2024-01-30T04:03:56;11.30;;;7.30;;
68438;SDS011;55421;51.600;5.718;2024-01-30T04:06:23;14.20;;;7.80;;
68438;SDS011;55421;51.600;5.718;2024-01-30T04:08:50;13.00;;;7.40;;
68438;SDS011;55421;51.600;5.718;2024-01-30T04:11:18;13.90;;;7.80;;
68438;SDS011;55421;51.600;5.718;2024-01-30T04:13:46;11.50;;;7.20;;
68438;SDS011;55421;51.600;5.718;2024-01-30T04:16:21;11.40;;;7.80;;
68438;SDS011;55421;51.600;5.718;2024-01-30T04:18:48;12.10;;;7.70;;
68438;SDS011;55421;51.600;5.718;2024-01-30T04:21:16;15.40;;;7.60;;
68438;SDS011;55421;51.600;5.718;2024-01-30T04:23:42;13.50;;;7.60;;
68438;SDS011;55421;51.600;5.718;2024-01-30T04:26:09;13.80;;;7.80;;
68438;SDS011;55421;51.600;5.718;2024-01-30T04:28:35;10.10;;;7.60;;
68438;SDS011;55421;51.600;5.718;2024-01-30T04:31:02;10.60;;;7.30;;
68438;SDS011;55421;51.600;5.718;2024-01-30T04:33:28;11.60;;;7.60;;
68438;SDS011;55421;51.600;5.718;2024-01-30T04:35:55;12.70;;;6.90;;
68438;SDS011;55421;51.600;5.718;2024-01-30T04:38:21;11.00;;;7.30;;
68438;SDS011;55421;51.600;5.718;2024-01-30T04:40:48;11.80;;;7.20;;
68438;SDS011;55421;51.600;5.718;2024-01-30T04:43:14;14.40;;;7.10;;
68438;SDS011;55421;51.600;5.718;2024-01-30T04:45:42;11.60;;;7.00;;
68438;SDS011;55421;51.600;5.718;2024-01-30T04:48:08;12.80;;;7.10;;
68438;SDS011;55421;51.600;5.718;2024-01-30T04:50:34;13.10;;;7.60;;
68438;SDS011;55421;51.600;5.718;2024-01-30T04:53:01;12.90;;;7.80;;
68438;SDS011;55421;51.600;5.718;2024-01-30T04:55:28;12.60;;;7.30;;
68438;SDS011;55421;51.600;5.718;2024-01-30T04:57:54;11.30;;;6.90;;
68438;SDS011;55421;51.600;5.718;2024-01-30T05:00:21;12.70;;;7.70;;
68438;SDS011;55421;51.600;5.718;2024-01-30T05:02:47;11.50;;;7.50;;
68438;SDS011;55421;51.600;5.718;2024-01-30T05:05:14;12.60;;;7.20;;
68438;SDS011;55421;51.600;5.718;2024-01-30T05:07:41;12.20;;;7.00;;
68438;SDS011;55421;51.600;5.718;2024-01-30T05:10:08;11.70;;;7.10;;
68438;SDS011;55421;51.600;5.718;2024-01-30T05:12:35;10.60;;;6.30;;
68438;SDS011;55421;51.600;5.718;2024-01-30T05:15:01;11.50;;;6.60;;
68438;SDS011;55421;51.600;5.718;2024-01-30T05:17:28;13.30;;;7.20;;
68438;SDS011;55421;51.600;5.718;2024-01-30T05:19:54;10.70;;;7.00;;
68438;SDS011;55421;51.600;5.718;2024-01-30T05:22:21;11.80;;;7.10;;
68438;SDS011;55421;51.600;5.718;2024-01-30T05:24:47;10.00;;;6.30;;
68438;SDS011;55421;51.600;5.718;2024-01-30T05:27:14;11.30;;;7.00;;
68438;SDS011;55421;51.600;5.718;2024-01-30T05:29:40;12.60;;;6.70;;
68438;SDS011;55421;51.600;5.718;2024-01-30T05:32:07;10.90;;;6.90;;
68438;SDS011;55421;51.600;5.718;2024-01-30T05:34:37;9.10;;;6.50;;
68438;SDS011;55421;51.600;5.718;2024-01-30T05:37:03;11.10;;;6.30;;
68438;SDS011;55421;51.600;5.718;2024-01-30T05:39:30;9.10;;;6.40;;
68438;SDS011;55421;51.600;5.718;2024-01-30T05:41:59;12.50;;;6.80;;
68438;SDS011;55421;51.600;5.718;2024-01-30T05:44:26;10.90;;;6.80;;
68438;SDS011;55421;51.600;5.718;2024-01-30T05:46:53;10.10;;;6.40;;
68438;SDS011;55421;51.600;5.718;2024-01-30T05:49:20;8.70;;;6.10;;
68438;SDS011;55421;51.600;5.718;2024-01-30T05:51:46;9.90;;;6.70;;
68438;SDS011;55421;51.600;5.718;2024-01-30T05:54:12;10.30;;;6.60;;
68438;SDS011;55421;51.600;5.718;2024-01-30T05:56:39;9.90;;;6.40;;
68438;SDS011;55421;51.600;5.718;2024-01-30T05:59:05;10.30;;;6.70;;
68438;SDS011;55421;51.600;5.718;2024-01-30T06:01:32;9.90;;;6.30;;
68438;SDS011;55421;51.600;5.718;2024-01-30T06:04:00;9.90;;;6.60;;
68438;SDS011;55421;51.600;5.718;2024-01-30T06:06:27;8.50;;;6.10;;
68438;SDS011;55421;51.600;5.718;2024-01-30T06:08:54;9.30;;;6.10;;
68438;SDS011;55421;51.600;5.718;2024-01-30T06:11:22;11.50;;;6.00;;
68438;SDS011;55421;51.600;5.718;2024-01-30T06:13:48;11.20;;;6.30;;
68438;SDS011;55421;51.600;5.718;2024-01-30T06:16:15;13.00;;;7.20;;
68438;SDS011;55421;51.600;5.718;2024-01-30T06:18:41;11.90;;;6.30;;
68438;SDS011;55421;51.600;5.718;2024-01-30T06:21:08;9.00;;;6.40;;
68438;SDS011;55421;51.600;5.718;2024-01-30T06:23:34;9.70;;;6.10;;
68438;SDS011;55421;51.600;5.718;2024-01-30T06:26:01;10.90;;;6.10;;
68438;SDS011;55421;51.600;5.718;2024-01-30T06:28:27;10.30;;;6.20;;
68438;SDS011;55421;51.600;5.718;2024-01-30T06:30:54;10.50;;;6.10;;
68438;SDS011;55421;51.600;5.718;2024-01-30T06:33:20;10.80;;;6.20;;
68438;SDS011;55421;51.600;5.718;2024-01-30T06:35:47;9.50;;;6.20;;
68438;SDS011;55421;51.600;5.718;2024-01-30T06:38:13;10.20;;;6.10;;
68438;SDS011;55421;51.600;5.718;2024-01-30T06:40:42;9.40;;;6.40;;
68438;SDS011;55421;51.600;5.718;2024-01-30T06:43:08;10.70;;;6.50;;
68438;SDS011;55421;51.600;5.718;2024-01-30T06:45:35;9.50;;;5.80;;
68438;SDS011;55421;51.600;5.718;2024-01-30T06:48:02;11.00;;;6.80;;
68438;SDS011;55421;51.600;5.718;2024-01-30T06:50:29;12.20;;;6.40;;
68438;SDS011;55421;51.600;5.718;2024-01-30T06:52:55;9.20;;;6.10;;
68438;SDS011;55421;51.600;5.718;2024-01-30T06:55:21;8.70;;;6.00;;
68438;SDS011;55421;51.600;5.718;2024-01-30T06:57:48;11.80;;;6.10;;
68438;SDS011;55421;51.600;5.718;2024-01-30T07:00:15;9.30;;;5.90;;
68438;SDS011;55421;51.600;5.718;2024-01-30T07:02:42;8.90;;;6.40;;
68438;SDS011;55421;51.600;5.718;2024-01-30T07:05:09;11.40;;;6.40;;
68438;SDS011;55421;51.600;5.718;2024-01-30T07:07:36;9.60;;;5.80;;
68438;SDS011;55421;51.600;5.718;2024-01-30T07:10:03;11.00;;;6.40;;
68438;SDS011;55421;51.600;5.718;2024-01-30T07:12:30;8.80;;;5.60;;
68438;SDS011;55421;51.600;5.718;2024-01-30T07:14:57;9.30;;;5.90;;
68438;SDS011;55421;51.600;5.718;2024-01-30T07:17:25;9.30;;;5.80;;
68438;SDS011;55421;51.600;5.718;2024-01-30T07:19:52;10.80;;;6.80;;
68438;SDS011;55421;51.600;5.718;2024-01-30T07:22:18;14.10;;;5.90;;
68438;SDS011;55421;51.600;5.718;2024-01-30T07:24:45;9.80;;;6.30;;
68438;SDS011;55421;51.600;5.718;2024-01-30T07:27:14;10.20;;;6.50;;
68438;SDS011;55421;51.600;5.718;2024-01-30T07:29:40;11.70;;;6.70;;
68438;SDS011;55421;51.600;5.718;2024-01-30T07:32:09;8.80;;;6.40;;
68438;SDS011;55421;51.600;5.718;2024-01-30T07:34:35;11.30;;;6.60;;
68438;SDS011;55421;51.600;5.718;2024-01-30T07:37:02;10.50;;;6.20;;
68438;SDS011;55421;51.600;5.718;2024-01-30T07:39:29;8.50;;;6.10;;
68438;SDS011;55421;51.600;5.718;2024-01-30T07:41:55;9.30;;;6.10;;
68438;SDS011;55421;51.600;5.718;2024-01-30T07:44:22;10.40;;;6.40;;
68438;SDS011;55421;51.600;5.718;2024-01-30T07:46:49;8.70;;;5.70;;
68438;SDS011;55421;51.600;5.718;2024-01-30T07:49:16;8.30;;;5.90;;
68438;SDS011;55421;51.600;5.718;2024-01-30T07:51:43;13.10;;;5.70;;
68438;SDS011;55421;51.600;5.718;2024-01-30T07:54:14;9.50;;;5.80;;
68438;SDS011;55421;51.600;5.718;2024-01-30T07:56:41;7.70;;;5.80;;
68438;SDS011;55421;51.600;5.718;2024-01-30T07:59:11;10.10;;;6.00;;
68438;SDS011;55421;51.600;5.718;2024-01-30T08:01:38;10.30;;;6.00;;
68438;SDS011;55421;51.600;5.718;2024-01-30T08:04:04;8.40;;;5.50;;
68438;SDS011;55421;51.600;5.718;2024-01-30T08:06:31;9.20;;;5.60;;
68438;SDS011;55421;51.600;5.718;2024-01-30T08:08:57;9.50;;;5.40;;
68438;SDS011;55421;51.600;5.718;2024-01-30T08:11:25;8.00;;;5.80;;
68438;SDS011;55421;51.600;5.718;2024-01-30T08:13:53;10.40;;;5.80;;
68438;SDS011;55421;51.600;5.718;2024-01-30T08:16:20;7.90;;;5.30;;
68438;SDS011;55421;51.600;5.718;2024-01-30T08:18:46;9.20;;;5.20;;
68438;SDS011;55421;51.600;5.718;2024-01-30T08:21:13;6.50;;;5.10;;
68438;SDS011;55421;51.600;5.718;2024-01-30T08:23:40;11.50;;;6.20;;
68438;SDS011;55421;51.600;5.718;2024-01-30T08:26:06;8.30;;;5.30;;
68438;SDS011;55421;51.600;5.718;2024-01-30T08:28:33;7.20;;;5.10;;
68438;SDS011;55421;51.600;5.718;2024-01-30T08:30:59;7.00;;;5.50;;
68438;SDS011;55421;51.600;5.718;2024-01-30T08:33:29;11.30;;;5.80;;
68438;SDS011;55421;51.600;5.718;2024-01-30T08:35:56;8.10;;;5.80;;
68438;SDS011;55421;51.600;5.718;2024-01-30T08:38:22;8.50;;;5.50;;
68438;SDS011;55421;51.600;5.718;2024-01-30T08:40:49;7.70;;;5.50;;
68438;SDS011;55421;51.600;5.718;2024-01-30T08:43:15;8.20;;;5.40;;
68438;SDS011;55421;51.600;5.718;2024-01-30T08:45:42;9.40;;;5.70;;
68438;SDS011;55421;51.600;5.718;2024-01-30T08:48:09;9.00;;;5.70;;
68438;SDS011;55421;51.600;5.718;2024-01-30T08:50:35;8.20;;;5.40;;
68438;SDS011;55421;51.600;5.718;2024-01-30T08:53:02;8.00;;;5.70;;
68438;SDS011;55421;51.600;5.718;2024-01-30T08:55:29;7.80;;;5.60;;
68438;SDS011;55421;51.600;5.718;2024-01-30T08:57:56;7.20;;;5.40;;
68438;SDS011;55421;51.600;5.718;2024-01-30T09:00:23;8.00;;;5.30;;
68438;SDS011;55421;51.600;5.718;2024-01-30T09:02:49;10.10;;;5.40;;
68438;SDS011;55421;51.600;5.718;2024-01-30T09:05:16;9.90;;;6.10;;
68438;SDS011;55421;51.600;5.718;2024-01-30T09:07:42;10.60;;;5.60;;
68438;SDS011;55421;51.600;5.718;2024-01-30T09:10:09;10.70;;;5.50;;
68438;SDS011;55421;51.600;5.718;2024-01-30T09:12:35;9.30;;;5.70;;
68438;SDS011;55421;51.600;5.718;2024-01-30T09:15:02;13.00;;;6.10;;
68438;SDS011;55421;51.600;5.718;2024-01-30T09:17:29;12.50;;;5.90;;
68438;SDS011;55421;51.600;5.718;2024-01-30T09:19:56;11.20;;;6.60;;
68438;SDS011;55421;51.600;5.718;2024-01-30T09:22:22;9.40;;;6.50;;
68438;SDS011;55421;51.600;5.718;2024-01-30T09:24:49;10.00;;;6.90;;
68438;SDS011;55421;51.600;5.718;2024-01-30T09:27:15;12.30;;;6.20;;
68438;SDS011;55421;51.600;5.718;2024-01-30T09:29:42;11.70;;;6.40;;
68438;SDS011;55421;51.600;5.718;2024-01-30T09:32:08;9.90;;;6.30;;
68438;SDS011;55421;51.600;5.718;2024-01-30T09:34:35;11.20;;;6.80;;
68438;SDS011;55421;51.600;5.718;2024-01-30T09:37:01;10.10;;;6.30;;
68438;SDS011;55421;51.600;5.718;2024-01-30T09:39:28;11.80;;;7.00;;
68438;SDS011;55421;51.600;5.718;2024-01-30T09:42:11;10.00;;;6.20;;
68438;SDS011;55421;51.600;5.718;2024-01-30T09:44:49;9.50;;;5.70;;
68438;SDS011;55421;51.600;5.718;2024-01-30T09:47:18;14.40;;;6.40;;
68438;SDS011;55421;51.600;5.718;2024-01-30T09:49:45;10.20;;;5.70;;
68438;SDS011;55421;51.600;5.718;2024-01-30T09:52:12;15.10;;;6.10;;
68438;SDS011;55421;51.600;5.718;2024-01-30T09:54:40;8.90;;;6.10;;
68438;SDS011;55421;51.600;5.718;2024-01-30T09:57:08;14.30;;;6.30;;
68438;SDS011;55421;51.600;5.718;2024-01-30T09:59:35;10.40;;;5.70;;
68438;SDS011;55421;51.600;5.718;2024-01-30T10:02:02;9.70;;;5.80;;
68438;SDS011;55421;51.600;5.718;2024-01-30T10:04:30;12.90;;;6.40;;
68438;SDS011;55421;51.600;5.718;2024-01-30T10:06:56;11.50;;;6.30;;
68438;SDS011;55421;51.600;5.718;2024-01-30T10:09:25;10.70;;;6.90;;
68438;SDS011;55421;51.600;5.718;2024-01-30T10:11:51;8.00;;;5.60;;
68438;SDS011;55421;51.600;5.718;2024-01-30T10:14:18;10.30;;;6.40;;
68438;SDS011;55421;51.600;5.718;2024-01-30T10:16:46;9.70;;;6.20;;
68438;SDS011;55421;51.600;5.718;2024-01-30T10:19:13;8.50;;;5.70;;
68438;SDS011;55421;51.600;5.718;2024-01-30T10:21:40;11.90;;;6.10;;
68438;SDS011;55421;51.600;5.718;2024-01-30T10:24:06;11.50;;;6.00;;
68438;SDS011;55421;51.600;5.718;2024-01-30T10:26:33;11.40;;;6.30;;
68438;SDS011;55421;51.600;5.718;2024-01-30T10:29:00;10.50;;;6.40;;
68438;SDS011;55421;51.600;5.718;2024-01-30T10:31:27;9.60;;;6.00;;
68438;SDS011;55421;51.600;5.718;2024-01-30T10:33:53;10.80;;;6.60;;
68438;SDS011;55421;51.600;5.718;2024-01-30T10:36:25;11.00;;;5.60;;
68438;SDS011;55421;51.600;5.718;2024-01-30T10:38:59;9.80;;;6.00;;
68438;SDS011;55421;51.600;5.718;2024-01-30T10:41:27;10.70;;;6.10;;
68438;SDS011;55421;51.600;5.718;2024-01-30T10:44:08;10.90;;;6.00;;
68438;SDS011;55421;51.600;5.718;2024-01-30T10:46:41;13.80;;;7.00;;
68438;SDS011;55421;51.600;5.718;2024-01-30T10:49:12;12.60;;;6.00;;
68438;SDS011;55421;51.600;5.718;2024-01-30T10:51:40;11.10;;;6.70;;
68438;SDS011;55421;51.600;5.718;2024-01-30T10:54:09;11.90;;;6.20;;
68438;SDS011;55421;51.600;5.718;2024-01-30T10:56:36;12.20;;;6.10;;
68438;SDS011;55421;51.600;5.718;2024-01-30T10:59:04;13.10;;;6.80;;
68438;SDS011;55421;51.600;5.718;2024-01-30T11:01:31;11.50;;;6.00;;
68438;SDS011;55421;51.600;5.718;2024-01-30T11:03:57;15.80;;;7.10;;
68438;SDS011;55421;51.600;5.718;2024-01-30T11:06:25;15.20;;;6.30;;
68438;SDS011;55421;51.600;5.718;2024-01-30T11:11:30;10.40;;;6.10;;
68438;SDS011;55421;51.600;5.718;2024-01-30T11:14:00;14.10;;;6.60;;
68438;SDS011;55421;51.600;5.718;2024-01-30T11:16:32;12.60;;;6.00;;
68438;SDS011;55421;51.600;5.718;2024-01-30T11:19:00;10.70;;;6.70;;
68438;SDS011;55421;51.600;5.718;2024-01-30T11:21:28;9.90;;;6.20;;
68438;SDS011;55421;51.600;5.718;2024-01-30T11:23:55;13.00;;;6.60;;
68438;SDS011;55421;51.600;5.718;2024-01-30T11:26:30;13.20;;;6.10;;
68438;SDS011;55421;51.600;5.718;2024-01-30T11:28:57;12.10;;;6.10;;
68438;SDS011;55421;51.600;5.718;2024-01-30T11:31:23;9.90;;;6.30;;
68438;SDS011;55421;51.600;5.718;2024-01-30T11:33:52;12.20;;;6.70;;
68438;SDS011;55421;51.600;5.718;2024-01-30T11:36:25;10.40;;;5.50;;
68438;SDS011;55421;51.600;5.718;2024-01-30T11:38:54;10.90;;;6.30;;
68438;SDS011;55421;51.600;5.718;2024-01-30T11:41:21;11.30;;;6.70;;
68438;SDS011;55421;51.600;5.718;2024-01-30T11:43:54;16.30;;;7.20;;
68438;SDS011;55421;51.600;5.718;2024-01-30T11:46:24;9.50;;;5.80;;
68438;SDS011;55421;51.600;5.718;2024-01-30T11:48:52;13.30;;;7.10;;
68438;SDS011;55421;51.600;5.718;2024-01-30T11:51:18;10.90;;;5.60;;
68438;SDS011;55421;51.600;5.718;2024-01-30T11:53:49;13.30;;;7.10;;
68438;SDS011;55421;51.600;5.718;2024-01-30T11:56:16;11.00;;;6.40;;
68438;SDS011;55421;51.600;5.718;2024-01-30T11:58:43;12.10;;;6.60;;
68438;SDS011;55421;51.600;5.718;2024-01-30T12:01:11;11.30;;;6.30;;
68438;SDS011;55421;51.600;5.718;2024-01-30T12:03:37;13.00;;;6.80;;
68438;SDS011;55421;51.600;5.718;2024-01-30T12:06:04;11.80;;;6.50;;
68438;SDS011;55421;51.600;5.718;2024-01-30T12:08:31;12.20;;;6.70;;
68438;SDS011;55421;51.600;5.718;2024-01-30T12:10:58;12.70;;;6.30;;
68438;SDS011;55421;51.600;5.718;2024-01-30T12:13:25;13.20;;;6.70;;
68438;SDS011;55421;51.600;5.718;2024-01-30T12:15:53;10.30;;;5.80;;
68438;SDS011;55421;51.600;5.718;2024-01-30T12:18:19;11.20;;;5.70;;
68438;SDS011;55421;51.600;5.718;2024-01-30T12:20:56;12.80;;;6.70;;
68438;SDS011;55421;51.600;5.718;2024-01-30T12:23:26;9.50;;;5.70;;
68438;SDS011;55421;51.600;5.718;2024-01-30T12:25:54;10.60;;;6.20;;
68438;SDS011;55421;51.600;5.718;2024-01-30T12:28:20;8.20;;;5.90;;
68438;SDS011;55421;51.600;5.718;2024-01-30T12:30:47;11.10;;;5.10;;
68438;SDS011;55421;51.600;5.718;2024-01-30T12:33:17;9.70;;;5.10;;
68438;SDS011;55421;51.600;5.718;2024-01-30T12:35:48;7.80;;;4.90;;
68438;SDS011;55421;51.600;5.718;2024-01-30T12:38:14;6.30;;;4.60;;
68438;SDS011;55421;51.600;5.718;2024-01-30T12:40:41;7.80;;;4.80;;
68438;SDS011;55421;51.600;5.718;2024-01-30T12:43:08;9.60;;;5.20;;
68438;SDS011;55421;51.600;5.718;2024-01-30T12:45:36;9.00;;;4.90;;
68438;SDS011;55421;51.600;5.718;2024-01-30T12:48:03;9.50;;;4.40;;
68438;SDS011;55421;51.600;5.718;2024-01-30T12:50:29;7.80;;;4.20;;
68438;SDS011;55421;51.600;5.718;2024-01-30T12:52:56;4.90;;;3.30;;
68438;SDS011;55421;51.600;5.718;2024-01-30T12:55:24;5.90;;;3.90;;
68438;SDS011;55421;51.600;5.718;2024-01-30T12:57:51;8.80;;;3.50;;
68438;SDS011;55421;51.600;5.718;2024-01-30T13:00:17;7.00;;;3.70;;
68438;SDS011;55421;51.600;5.718;2024-01-30T13:02:44;5.20;;;3.00;;
68438;SDS011;55421;51.600;5.718;2024-01-30T13:05:11;2.20;;;1.90;;
68438;SDS011;55421;51.600;5.718;2024-01-30T13:07:38;3.80;;;2.10;;
68438;SDS011;55421;51.600;5.718;2024-01-30T13:10:05;3.00;;;1.70;;
68438;SDS011;55421;51.600;5.718;2024-01-30T13:12:32;3.70;;;2.00;;
68438;SDS011;55421;51.600;5.718;2024-01-30T13:15:00;4.40;;;2.10;;
68438;SDS011;55421;51.600;5.718;2024-01-30T13:17:27;1.40;;;1.30;;
68438;SDS011;55421;51.600;5.718;2024-01-30T13:19:54;2.30;;;1.70;;
68438;SDS011;55421;51.600;5.718;2024-01-30T13:22:21;2.00;;;1.50;;
68438;SDS011;55421;51.600;5.718;2024-01-30T13:24:48;1.40;;;1.30;;
68438;SDS011;55421;51.600;5.718;2024-01-30T13:27:14;1.80;;;1.40;;
68438;SDS011;55421;51.600;5.718;2024-01-30T13:29:41;1.40;;;1.20;;
68438;SDS011;55421;51.600;5.718;2024-01-30T13:32:07;3.70;;;1.50;;
68438;SDS011;55421;51.600;5.718;2024-01-30T13:34:34;2.50;;;1.40;;
68438;SDS011;55421;51.600;5.718;2024-01-30T13:37:00;2.20;;;1.30;;
68438;SDS011;55421;51.600;5.718;2024-01-30T13:39:26;4.20;;;1.40;;
68438;SDS011;55421;51.600;5.718;2024-01-30T13:41:54;1.80;;;1.10;;
68438;SDS011;55421;51.600;5.718;2024-01-30T13:44:20;3.40;;;1.20;;
68438;SDS011;55421;51.600;5.718;2024-01-30T13:46:47;2.70;;;1.40;;
68438;SDS011;55421;51.600;5.718;2024-01-30T13:49:15;1.40;;;1.30;;
68438;SDS011;55421;51.600;5.718;2024-01-30T13:51:42;1.80;;;1.40;;
68438;SDS011;55421;51.600;5.718;2024-01-30T13:54:08;1.60;;;1.50;;
68438;SDS011;55421;51.600;5.718;2024-01-30T13:56:35;2.80;;;1.40;;
68438;SDS011;55421;51.600;5.718;2024-01-30T13:59:02;3.30;;;1.70;;
68438;SDS011;55421;51.600;5.718;2024-01-30T14:01:32;1.80;;;1.70;;
68438;SDS011;55421;51.600;5.718;2024-01-30T14:03:58;2.30;;;1.70;;
68438;SDS011;55421;51.600;5.718;2024-01-30T14:06:25;2.30;;;1.90;;
68438;SDS011;55421;51.600;5.718;2024-01-30T14:08:51;3.10;;;2.00;;
68438;SDS011;55421;51.600;5.718;2024-01-30T14:11:20;3.20;;;2.40;;
68438;SDS011;55421;51.600;5.718;2024-01-30T14:13:46;5.00;;;3.10;;
68438;SDS011;55421;51.600;5.718;2024-01-30T14:16:13;5.50;;;3.10;;
68438;SDS011;55421;51.600;5.718;2024-01-30T14:18:39;3.10;;;2.20;;
68438;SDS011;55421;51.600;5.718;2024-01-30T14:21:07;3.20;;;2.20;;
68438;SDS011;55421;51.600;5.718;2024-01-30T14:23:34;2.40;;;2.10;;
68438;SDS011;55421;51.600;5.718;2024-01-30T14:26:00;4.40;;;2.00;;
68438;SDS011;55421;51.600;5.718;2024-01-30T14:28:28;3.50;;;2.00;;
68438;SDS011;55421;51.600;5.718;2024-01-30T14:30:54;2.50;;;1.90;;
68438;SDS011;55421;51.600;5.718;2024-01-30T14:33:21;4.70;;;1.80;;
68438;SDS011;55421;51.600;5.718;2024-01-30T14:35:47;2.40;;;1.90;;
68438;SDS011;55421;51.600;5.718;2024-01-30T14:38:14;5.30;;;2.20;;
68438;SDS011;55421;51.600;5.718;2024-01-30T14:40:41;2.60;;;2.00;;